sensor_id;sensor_type;location;lat;lon;timestamp;temperature;humidity
10905;DHT22;5505;51.450;9.254;2023-02-01T00:02:36;4.70;99.90
10905;DHT22;5505;51.450;9.254;2023-02-01T00:05:26;4.70;99.90
10905;DHT22;5505;51.450;9.254;2023-02-01T00:08:13;4.70;99.90
10905;DHT22;5505;51.450;9.254;2023-02-01T00:11:01;6.10;99.90
10905;DHT22;5505;51.450;9.254;2023-02-01T00:13:49;5.90;99.90
10905;DHT22;5505;51.450;9.254;2023-02-01T00:16:36;4.80;99.90
10905;DHT22;5505;51.450;9.254;2023-02-01T00:19:23;4.60;99.90
10905;DHT22;5505;51.450;9.254;2023-02-01T00:22:11;4.60;99.90
10905;DHT22;5505;51.450;9.254;2023-02-01T00:24:59;4.70;99.90
10905;DHT22;5505;51.450;9.254;2023-02-01T00:27:48;4.60;99.90
10905;DHT22;5505;51.450;9.254;2023-02-01T00:30:35;4.60;99.90
10905;DHT22;5505;51.450;9.254;2023-02-01T00:33:22;4.60;99.90
10905;DHT22;5505;51.450;9.254;2023-02-01T00:36:09;4.50;99.90
10905;DHT22;5505;51.450;9.254;2023-02-01T00:38:57;4.50;99.90
10905;DHT22;5505;51.450;9.254;2023-02-01T00:41:44;4.50;99.90
10905;DHT22;5505;51.450;9.254;2023-02-01T00:44:31;4.50;99.90
10905;DHT22;5505;51.450;9.254;2023-02-01T00:47:19;4.50;99.90
10905;DHT22;5505;51.450;9.254;2023-02-01T00:50:07;4.50;99.90
10905;DHT22;5505;51.450;9.254;2023-02-01T00:52:54;4.50;99.90
10905;DHT22;5505;51.450;9.254;2023-02-01T00:55:44;4.50;99.90
10905;DHT22;5505;51.450;9.254;2023-02-01T00:58:31;4.50;99.90
10905;DHT22;5505;51.450;9.254;2023-02-01T01:01:20;4.40;99.90
10905;DHT22;5505;51.450;9.254;2023-02-01T01:04:08;4.50;99.90
10905;DHT22;5505;51.450;9.254;2023-02-01T01:06:54;4.50;99.90
10905;DHT22;5505;51.450;9.254;2023-02-01T01:09:41;4.60;99.90
10905;DHT22;5505;51.450;9.254;2023-02-01T01:12:30;4.50;99.90
10905;DHT22;5505;51.450;9.254;2023-02-01T01:15:17;4.50;99.90
10905;DHT22;5505;51.450;9.254;2023-02-01T01:18:04;4.50;99.90
10905;DHT22;5505;51.450;9.254;2023-02-01T01:20:51;4.50;99.90
10905;DHT22;5505;51.450;9.254;2023-02-01T01:23:38;5.40;99.90
10905;DHT22;5505;51.450;9.254;2023-02-01T01:26:26;4.40;99.90
10905;DHT22;5505;51.450;9.254;2023-02-01T01:29:15;4.40;99.90
10905;DHT22;5505;51.450;9.254;2023-02-01T01:32:01;4.40;99.90
10905;DHT22;5505;51.450;9.254;2023-02-01T01:34:48;4.40;99.90
10905;DHT22;5505;51.450;9.254;2023-02-01T01:37:35;4.40;99.90
10905;DHT22;5505;51.450;9.254;2023-02-01T01:40:22;4.40;99.90
10905;DHT22;5505;51.450;9.254;2023-02-01T01:43:13;4.40;99.90
10905;DHT22;5505;51.450;9.254;2023-02-01T01:46:02;4.40;99.90
10905;DHT22;5505;51.450;9.254;2023-02-01T01:48:51;4.40;99.90
10905;DHT22;5505;51.450;9.254;2023-02-01T01:51:42;4.40;99.90
10905;DHT22;5505;51.450;9.254;2023-02-01T01:54:33;4.50;99.90
10905;DHT22;5505;51.450;9.254;2023-02-01T01:57:25;4.40;99.90
10905;DHT22;5505;51.450;9.254;2023-02-01T02:00:16;4.40;99.90
10905;DHT22;5505;51.450;9.254;2023-02-01T02:03:11;4.40;99.90
10905;DHT22;5505;51.450;9.254;2023-02-01T02:06:02;4.50;99.90
10905;DHT22;5505;51.450;9.254;2023-02-01T02:08:50;4.50;99.90
10905;DHT22;5505;51.450;9.254;2023-02-01T02:11:37;4.50;99.90
10905;DHT22;5505;51.450;9.254;2023-02-01T02:14:24;4.50;99.90
10905;DHT22;5505;51.450;9.254;2023-02-01T02:17:20;6.50;99.90
10905;DHT22;5505;51.450;9.254;2023-02-01T02:20:43;4.60;99.90
10905;DHT22;5505;51.450;9.254;2023-02-01T02:23:53;4.70;99.90
10905;DHT22;5505;51.450;9.254;2023-02-01T02:27:07;4.60;99.90
10905;DHT22;5505;51.450;9.254;2023-02-01T02:30:42;4.70;99.90
10905;DHT22;5505;51.450;9.254;2023-02-01T02:33:47;4.70;99.90
10905;DHT22;5505;51.450;9.254;2023-02-01T02:36:44;4.70;99.90
10905;DHT22;5505;51.450;9.254;2023-02-01T02:39:44;4.70;99.90
10905;DHT22;5505;51.450;9.254;2023-02-01T02:42:38;4.70;99.90
10905;DHT22;5505;51.450;9.254;2023-02-01T02:45:49;4.70;99.90
10905;DHT22;5505;51.450;9.254;2023-02-01T02:49:02;4.70;99.90
10905;DHT22;5505;51.450;9.254;2023-02-01T02:51:53;5.00;99.90
10905;DHT22;5505;51.450;9.254;2023-02-01T02:55:00;4.70;99.90
10905;DHT22;5505;51.450;9.254;2023-02-01T02:57:49;6.00;99.90
10905;DHT22;5505;51.450;9.254;2023-02-01T03:00:55;4.70;99.90
10905;DHT22;5505;51.450;9.254;2023-02-01T03:04:02;4.70;99.90
10905;DHT22;5505;51.450;9.254;2023-02-01T03:06:54;4.80;99.90
10905;DHT22;5505;51.450;9.254;2023-02-01T03:09:44;4.80;99.90
10905;DHT22;5505;51.450;9.254;2023-02-01T03:12:34;4.80;99.90
10905;DHT22;5505;51.450;9.254;2023-02-01T03:15:44;5.90;99.90
10905;DHT22;5505;51.450;9.254;2023-02-01T03:18:37;4.80;99.90
10905;DHT22;5505;51.450;9.254;2023-02-01T03:21:32;4.80;99.90
10905;DHT22;5505;51.450;9.254;2023-02-01T03:24:23;4.80;99.90
10905;DHT22;5505;51.450;9.254;2023-02-01T03:27:21;4.80;99.90
10905;DHT22;5505;51.450;9.254;2023-02-01T03:30:15;4.80;99.90
10905;DHT22;5505;51.450;9.254;2023-02-01T03:33:06;4.90;99.90
10905;DHT22;5505;51.450;9.254;2023-02-01T03:36:05;4.90;99.90
10905;DHT22;5505;51.450;9.254;2023-02-01T03:39:02;4.90;99.90
10905;DHT22;5505;51.450;9.254;2023-02-01T03:41:52;4.90;99.90
10905;DHT22;5505;51.450;9.254;2023-02-01T03:44:46;4.90;99.90
10905;DHT22;5505;51.450;9.254;2023-02-01T03:47:39;4.80;99.90
10905;DHT22;5505;51.450;9.254;2023-02-01T03:50:28;4.80;99.90
10905;DHT22;5505;51.450;9.254;2023-02-01T03:53:19;4.80;99.90
10905;DHT22;5505;51.450;9.254;2023-02-01T03:56:08;4.80;99.90
10905;DHT22;5505;51.450;9.254;2023-02-01T03:58:57;4.80;99.90
10905;DHT22;5505;51.450;9.254;2023-02-01T04:01:46;4.80;99.90
10905;DHT22;5505;51.450;9.254;2023-02-01T04:04:34;4.70;99.90
10905;DHT22;5505;51.450;9.254;2023-02-01T04:07:21;4.70;99.90
10905;DHT22;5505;51.450;9.254;2023-02-01T04:10:09;4.70;99.90
10905;DHT22;5505;51.450;9.254;2023-02-01T04:12:57;4.70;99.90
10905;DHT22;5505;51.450;9.254;2023-02-01T04:15:44;4.70;99.90
10905;DHT22;5505;51.450;9.254;2023-02-01T04:18:31;8.10;99.90
10905;DHT22;5505;51.450;9.254;2023-02-01T04:21:17;4.70;99.90
10905;DHT22;5505;51.450;9.254;2023-02-01T04:24:05;4.70;99.90
10905;DHT22;5505;51.450;9.254;2023-02-01T04:26:52;4.70;99.90
10905;DHT22;5505;51.450;9.254;2023-02-01T04:29:40;4.70;99.90
10905;DHT22;5505;51.450;9.254;2023-02-01T04:32:27;4.70;99.90
10905;DHT22;5505;51.450;9.254;2023-02-01T04:35:14;4.70;99.90
10905;DHT22;5505;51.450;9.254;2023-02-01T04:38:03;4.80;99.90
10905;DHT22;5505;51.450;9.254;2023-02-01T04:40:49;4.80;99.90
10905;DHT22;5505;51.450;9.254;2023-02-01T04:43:36;4.80;99.90
10905;DHT22;5505;51.450;9.254;2023-02-01T04:46:26;4.70;99.90
10905;DHT22;5505;51.450;9.254;2023-02-01T04:49:14;4.70;99.90
10905;DHT22;5505;51.450;9.254;2023-02-01T04:52:01;4.70;99.90
10905;DHT22;5505;51.450;9.254;2023-02-01T04:54:48;6.50;99.90
10905;DHT22;5505;51.450;9.254;2023-02-01T04:57:34;4.70;99.90
10905;DHT22;5505;51.450;9.254;2023-02-01T05:00:21;4.70;99.90
10905;DHT22;5505;51.450;9.254;2023-02-01T05:03:09;4.70;99.90
10905;DHT22;5505;51.450;9.254;2023-02-01T05:05:56;4.70;99.90
10905;DHT22;5505;51.450;9.254;2023-02-01T05:08:43;4.70;99.90
10905;DHT22;5505;51.450;9.254;2023-02-01T05:11:29;4.60;99.90
10905;DHT22;5505;51.450;9.254;2023-02-01T05:14:34;4.60;99.90
10905;DHT22;5505;51.450;9.254;2023-02-01T05:17:20;4.60;99.90
10905;DHT22;5505;51.450;9.254;2023-02-01T05:20:10;4.70;99.90
10905;DHT22;5505;51.450;9.254;2023-02-01T05:22:57;4.70;99.90
10905;DHT22;5505;51.450;9.254;2023-02-01T05:25:43;4.70;99.90
10905;DHT22;5505;51.450;9.254;2023-02-01T05:28:30;4.70;99.90
10905;DHT22;5505;51.450;9.254;2023-02-01T05:31:17;4.80;99.90
10905;DHT22;5505;51.450;9.254;2023-02-01T05:34:04;5.20;99.90
10905;DHT22;5505;51.450;9.254;2023-02-01T05:36:52;4.80;99.90
10905;DHT22;5505;51.450;9.254;2023-02-01T05:39:39;4.80;99.90
10905;DHT22;5505;51.450;9.254;2023-02-01T05:42:26;4.70;99.90
10905;DHT22;5505;51.450;9.254;2023-02-01T05:45:13;4.70;99.90
10905;DHT22;5505;51.450;9.254;2023-02-01T05:47:59;4.60;99.90
10905;DHT22;5505;51.450;9.254;2023-02-01T05:50:46;4.60;99.90
10905;DHT22;5505;51.450;9.254;2023-02-01T05:53:35;4.50;99.90
10905;DHT22;5505;51.450;9.254;2023-02-01T05:56:21;4.40;99.90
10905;DHT22;5505;51.450;9.254;2023-02-01T05:59:09;4.40;99.90
10905;DHT22;5505;51.450;9.254;2023-02-01T06:01:56;4.40;99.90
10905;DHT22;5505;51.450;9.254;2023-02-01T06:04:42;4.30;99.90
10905;DHT22;5505;51.450;9.254;2023-02-01T06:07:29;4.20;99.90
10905;DHT22;5505;51.450;9.254;2023-02-01T06:10:19;4.20;99.90
10905;DHT22;5505;51.450;9.254;2023-02-01T06:13:06;4.20;99.90
10905;DHT22;5505;51.450;9.254;2023-02-01T06:15:53;4.10;99.90
10905;DHT22;5505;51.450;9.254;2023-02-01T06:18:41;4.10;99.90
10905;DHT22;5505;51.450;9.254;2023-02-01T06:21:28;4.10;99.90
10905;DHT22;5505;51.450;9.254;2023-02-01T06:24:15;4.10;99.90
10905;DHT22;5505;51.450;9.254;2023-02-01T06:27:03;4.10;99.90
10905;DHT22;5505;51.450;9.254;2023-02-01T06:29:50;4.10;99.90
10905;DHT22;5505;51.450;9.254;2023-02-01T06:32:36;4.10;99.90
10905;DHT22;5505;51.450;9.254;2023-02-01T06:35:24;4.20;99.90
10905;DHT22;5505;51.450;9.254;2023-02-01T06:38:12;4.20;99.90
10905;DHT22;5505;51.450;9.254;2023-02-01T06:40:59;4.20;99.90
10905;DHT22;5505;51.450;9.254;2023-02-01T06:43:47;4.20;99.90
10905;DHT22;5505;51.450;9.254;2023-02-01T06:46:34;4.50;99.90
10905;DHT22;5505;51.450;9.254;2023-02-01T06:49:21;4.40;99.90
10905;DHT22;5505;51.450;9.254;2023-02-01T06:52:07;4.40;99.90
10905;DHT22;5505;51.450;9.254;2023-02-01T06:54:54;4.40;99.90
10905;DHT22;5505;51.450;9.254;2023-02-01T06:57:41;4.50;99.90
10905;DHT22;5505;51.450;9.254;2023-02-01T07:00:29;4.60;99.90
10905;DHT22;5505;51.450;9.254;2023-02-01T07:03:16;4.60;99.90
10905;DHT22;5505;51.450;9.254;2023-02-01T07:06:05;6.70;99.90
10905;DHT22;5505;51.450;9.254;2023-02-01T07:08:53;4.70;99.90
10905;DHT22;5505;51.450;9.254;2023-02-01T07:11:41;4.70;99.90
10905;DHT22;5505;51.450;9.254;2023-02-01T07:14:29;4.70;99.90
10905;DHT22;5505;51.450;9.254;2023-02-01T07:17:17;4.80;99.90
10905;DHT22;5505;51.450;9.254;2023-02-01T07:20:05;4.70;99.90
10905;DHT22;5505;51.450;9.254;2023-02-01T07:22:55;4.80;99.90
10905;DHT22;5505;51.450;9.254;2023-02-01T07:25:42;4.80;99.90
10905;DHT22;5505;51.450;9.254;2023-02-01T07:28:30;5.30;99.90
10905;DHT22;5505;51.450;9.254;2023-02-01T07:31:19;4.80;99.90
10905;DHT22;5505;51.450;9.254;2023-02-01T07:34:08;4.90;99.90
10905;DHT22;5505;51.450;9.254;2023-02-01T07:36:55;4.90;99.90
10905;DHT22;5505;51.450;9.254;2023-02-01T07:39:41;4.90;99.90
10905;DHT22;5505;51.450;9.254;2023-02-01T07:42:28;5.10;99.90
10905;DHT22;5505;51.450;9.254;2023-02-01T07:45:15;4.90;99.90
10905;DHT22;5505;51.450;9.254;2023-02-01T07:48:05;4.90;99.90
10905;DHT22;5505;51.450;9.254;2023-02-01T07:50:59;5.00;99.90
10905;DHT22;5505;51.450;9.254;2023-02-01T07:53:46;5.00;99.90
10905;DHT22;5505;51.450;9.254;2023-02-01T07:56:32;5.00;99.90
10905;DHT22;5505;51.450;9.254;2023-02-01T07:59:19;5.00;99.90
10905;DHT22;5505;51.450;9.254;2023-02-01T08:02:07;5.00;99.90
10905;DHT22;5505;51.450;9.254;2023-02-01T08:04:54;5.00;99.90
10905;DHT22;5505;51.450;9.254;2023-02-01T08:07:42;5.00;99.90
10905;DHT22;5505;51.450;9.254;2023-02-01T08:10:29;5.00;99.90
10905;DHT22;5505;51.450;9.254;2023-02-01T08:13:16;5.00;99.90
10905;DHT22;5505;51.450;9.254;2023-02-01T08:16:04;5.00;99.90
10905;DHT22;5505;51.450;9.254;2023-02-01T08:18:51;5.00;99.90
10905;DHT22;5505;51.450;9.254;2023-02-01T08:21:38;3.40;99.90
10905;DHT22;5505;51.450;9.254;2023-02-01T08:24:26;8.70;99.90
10905;DHT22;5505;51.450;9.254;2023-02-01T08:27:13;5.00;99.90
10905;DHT22;5505;51.450;9.254;2023-02-01T08:30:00;5.00;99.90
10905;DHT22;5505;51.450;9.254;2023-02-01T08:32:47;5.00;99.90
10905;DHT22;5505;51.450;9.254;2023-02-01T08:35:35;5.00;99.90
10905;DHT22;5505;51.450;9.254;2023-02-01T08:38:22;5.10;99.90
10905;DHT22;5505;51.450;9.254;2023-02-01T08:41:12;5.10;99.90
10905;DHT22;5505;51.450;9.254;2023-02-01T08:43:59;5.00;99.90
10905;DHT22;5505;51.450;9.254;2023-02-01T08:46:46;5.00;99.90
10905;DHT22;5505;51.450;9.254;2023-02-01T08:49:33;5.00;99.90
10905;DHT22;5505;51.450;9.254;2023-02-01T08:52:20;5.10;99.90
10905;DHT22;5505;51.450;9.254;2023-02-01T08:55:07;5.10;99.90
10905;DHT22;5505;51.450;9.254;2023-02-01T08:57:56;5.10;99.90
10905;DHT22;5505;51.450;9.254;2023-02-01T09:00:43;5.20;99.90
10905;DHT22;5505;51.450;9.254;2023-02-01T09:03:30;7.10;99.90
10905;DHT22;5505;51.450;9.254;2023-02-01T09:06:17;5.20;99.90
10905;DHT22;5505;51.450;9.254;2023-02-01T09:09:04;5.20;99.90
10905;DHT22;5505;51.450;9.254;2023-02-01T09:11:51;5.30;99.90
10905;DHT22;5505;51.450;9.254;2023-02-01T09:14:39;5.30;99.90
10905;DHT22;5505;51.450;9.254;2023-02-01T09:17:26;5.30;99.90
10905;DHT22;5505;51.450;9.254;2023-02-01T09:20:13;6.80;99.90
10905;DHT22;5505;51.450;9.254;2023-02-01T09:22:59;5.30;99.90
10905;DHT22;5505;51.450;9.254;2023-02-01T09:25:47;5.30;99.90
10905;DHT22;5505;51.450;9.254;2023-02-01T09:28:35;3.70;99.90
10905;DHT22;5505;51.450;9.254;2023-02-01T09:31:23;5.40;99.90
10905;DHT22;5505;51.450;9.254;2023-02-01T09:34:10;5.50;99.90
10905;DHT22;5505;51.450;9.254;2023-02-01T09:36:57;5.50;99.90
10905;DHT22;5505;51.450;9.254;2023-02-01T09:39:44;5.50;99.90
10905;DHT22;5505;51.450;9.254;2023-02-01T09:42:50;5.50;99.90
10905;DHT22;5505;51.450;9.254;2023-02-01T09:45:47;5.50;99.90
10905;DHT22;5505;51.450;9.254;2023-02-01T09:48:40;5.50;99.90
10905;DHT22;5505;51.450;9.254;2023-02-01T09:51:32;5.90;99.90
10905;DHT22;5505;51.450;9.254;2023-02-01T09:54:22;5.70;99.90
10905;DHT22;5505;51.450;9.254;2023-02-01T09:57:14;5.50;99.90
10905;DHT22;5505;51.450;9.254;2023-02-01T10:00:05;5.80;99.90
10905;DHT22;5505;51.450;9.254;2023-02-01T10:02:54;5.50;99.90
10905;DHT22;5505;51.450;9.254;2023-02-01T10:05:55;5.50;99.90
10905;DHT22;5505;51.450;9.254;2023-02-01T10:08:58;5.50;99.90
10905;DHT22;5505;51.450;9.254;2023-02-01T10:11:59;5.60;99.90
10905;DHT22;5505;51.450;9.254;2023-02-01T10:14:56;5.50;99.90
10905;DHT22;5505;51.450;9.254;2023-02-01T10:17:55;5.60;99.90
10905;DHT22;5505;51.450;9.254;2023-02-01T10:20:57;5.50;99.90
10905;DHT22;5505;51.450;9.254;2023-02-01T10:24:05;5.50;99.90
10905;DHT22;5505;51.450;9.254;2023-02-01T10:27:01;5.50;99.90
10905;DHT22;5505;51.450;9.254;2023-02-01T10:29:53;5.80;99.90
10905;DHT22;5505;51.450;9.254;2023-02-01T10:32:41;5.50;99.90
10905;DHT22;5505;51.450;9.254;2023-02-01T10:35:31;5.60;99.90
10905;DHT22;5505;51.450;9.254;2023-02-01T10:38:25;5.50;99.90
10905;DHT22;5505;51.450;9.254;2023-02-01T10:41:15;5.50;99.90
10905;DHT22;5505;51.450;9.254;2023-02-01T10:44:05;5.50;99.90
10905;DHT22;5505;51.450;9.254;2023-02-01T10:46:54;5.50;99.90
10905;DHT22;5505;51.450;9.254;2023-02-01T10:49:45;5.50;99.90
10905;DHT22;5505;51.450;9.254;2023-02-01T10:52:40;5.50;99.90
10905;DHT22;5505;51.450;9.254;2023-02-01T10:55:33;5.50;99.90
10905;DHT22;5505;51.450;9.254;2023-02-01T10:58:25;5.50;99.90
10905;DHT22;5505;51.450;9.254;2023-02-01T11:01:18;5.60;99.90
10905;DHT22;5505;51.450;9.254;2023-02-01T11:04:06;5.60;99.90
10905;DHT22;5505;51.450;9.254;2023-02-01T11:07:05;5.70;99.90
10905;DHT22;5505;51.450;9.254;2023-02-01T11:09:54;6.40;99.90
10905;DHT22;5505;51.450;9.254;2023-02-01T11:12:53;5.70;99.90
10905;DHT22;5505;51.450;9.254;2023-02-01T11:15:43;5.70;99.90
10905;DHT22;5505;51.450;9.254;2023-02-01T11:18:33;5.70;99.90
10905;DHT22;5505;51.450;9.254;2023-02-01T11:21:22;5.70;99.90
10905;DHT22;5505;51.450;9.254;2023-02-01T11:24:20;5.80;99.90
10905;DHT22;5505;51.450;9.254;2023-02-01T11:27:15;5.70;99.90
10905;DHT22;5505;51.450;9.254;2023-02-01T11:30:04;5.80;99.90
10905;DHT22;5505;51.450;9.254;2023-02-01T11:32:51;5.80;99.90
10905;DHT22;5505;51.450;9.254;2023-02-01T11:35:39;5.80;99.90
10905;DHT22;5505;51.450;9.254;2023-02-01T11:38:28;5.80;99.90
10905;DHT22;5505;51.450;9.254;2023-02-01T11:41:21;5.90;99.90
10905;DHT22;5505;51.450;9.254;2023-02-01T11:44:20;5.90;99.90
10905;DHT22;5505;51.450;9.254;2023-02-01T11:47:23;6.10;99.90
10905;DHT22;5505;51.450;9.254;2023-02-01T11:50:15;6.10;99.90
10905;DHT22;5505;51.450;9.254;2023-02-01T11:53:25;6.00;99.90
10905;DHT22;5505;51.450;9.254;2023-02-01T11:56:22;6.10;99.90
10905;DHT22;5505;51.450;9.254;2023-02-01T11:59:23;6.10;99.90
10905;DHT22;5505;51.450;9.254;2023-02-01T12:02:33;6.10;99.90
10905;DHT22;5505;51.450;9.254;2023-02-01T12:05:31;6.00;99.90
10905;DHT22;5505;51.450;9.254;2023-02-01T12:08:31;6.80;99.90
10905;DHT22;5505;51.450;9.254;2023-02-01T12:11:38;6.00;99.90
10905;DHT22;5505;51.450;9.254;2023-02-01T12:14:47;6.00;99.90
10905;DHT22;5505;51.450;9.254;2023-02-01T12:17:47;6.00;99.90
10905;DHT22;5505;51.450;9.254;2023-02-01T12:21:00;6.00;99.90
10905;DHT22;5505;51.450;9.254;2023-02-01T12:24:16;6.00;99.90
10905;DHT22;5505;51.450;9.254;2023-02-01T12:27:26;6.00;99.90
10905;DHT22;5505;51.450;9.254;2023-02-01T12:30:33;6.00;99.90
10905;DHT22;5505;51.450;9.254;2023-02-01T12:33:31;6.00;99.90
10905;DHT22;5505;51.450;9.254;2023-02-01T12:36:25;6.30;99.90
10905;DHT22;5505;51.450;9.254;2023-02-01T12:39:21;6.00;99.90
10905;DHT22;5505;51.450;9.254;2023-02-01T12:42:14;5.90;99.90
10905;DHT22;5505;51.450;9.254;2023-02-01T12:45:11;5.90;99.90
10905;DHT22;5505;51.450;9.254;2023-02-01T12:48:08;6.50;99.90
10905;DHT22;5505;51.450;9.254;2023-02-01T12:51:06;5.80;99.90
10905;DHT22;5505;51.450;9.254;2023-02-01T12:53:56;5.80;99.90
10905;DHT22;5505;51.450;9.254;2023-02-01T12:56:48;5.70;99.90
10905;DHT22;5505;51.450;9.254;2023-02-01T12:59:39;5.50;99.90
10905;DHT22;5505;51.450;9.254;2023-02-01T13:02:35;6.30;99.90
10905;DHT22;5505;51.450;9.254;2023-02-01T13:05:28;5.30;99.90
10905;DHT22;5505;51.450;9.254;2023-02-01T13:08:21;5.20;99.90
10905;DHT22;5505;51.450;9.254;2023-02-01T13:11:13;5.10;99.90
10905;DHT22;5505;51.450;9.254;2023-02-01T13:14:07;5.00;99.90
10905;DHT22;5505;51.450;9.254;2023-02-01T13:17:00;5.00;99.90
10905;DHT22;5505;51.450;9.254;2023-02-01T13:19:50;5.00;99.90
10905;DHT22;5505;51.450;9.254;2023-02-01T13:22:41;5.00;99.90
10905;DHT22;5505;51.450;9.254;2023-02-01T13:25:35;4.90;99.90
10905;DHT22;5505;51.450;9.254;2023-02-01T13:28:27;4.90;99.90
10905;DHT22;5505;51.450;9.254;2023-02-01T13:31:36;4.90;99.90
10905;DHT22;5505;51.450;9.254;2023-02-01T13:34:48;4.90;99.90
10905;DHT22;5505;51.450;9.254;2023-02-01T13:38:10;4.90;99.90
10905;DHT22;5505;51.450;9.254;2023-02-01T13:41:13;4.90;99.90
10905;DHT22;5505;51.450;9.254;2023-02-01T13:44:09;4.90;99.90
10905;DHT22;5505;51.450;9.254;2023-02-01T13:46:59;4.90;99.90
10905;DHT22;5505;51.450;9.254;2023-02-01T13:49:47;4.90;99.90
10905;DHT22;5505;51.450;9.254;2023-02-01T13:52:37;4.80;99.90
10905;DHT22;5505;51.450;9.254;2023-02-01T13:55:31;4.80;99.90
10905;DHT22;5505;51.450;9.254;2023-02-01T13:58:22;4.80;99.90
10905;DHT22;5505;51.450;9.254;2023-02-01T14:01:34;6.20;99.90
10905;DHT22;5505;51.450;9.254;2023-02-01T14:04:51;4.80;99.90
10905;DHT22;5505;51.450;9.254;2023-02-01T14:08:07;4.80;99.90
10905;DHT22;5505;51.450;9.254;2023-02-01T14:10:57;4.70;99.90
10905;DHT22;5505;51.450;9.254;2023-02-01T14:13:46;4.70;99.90
10905;DHT22;5505;51.450;9.254;2023-02-01T14:16:32;4.70;99.90
10905;DHT22;5505;51.450;9.254;2023-02-01T14:19:21;4.70;99.90
10905;DHT22;5505;51.450;9.254;2023-02-01T14:22:33;4.60;99.90
10905;DHT22;5505;51.450;9.254;2023-02-01T14:25:20;4.60;99.90
10905;DHT22;5505;51.450;9.254;2023-02-01T14:28:11;4.60;99.90
10905;DHT22;5505;51.450;9.254;2023-02-01T14:31:00;4.60;99.90
10905;DHT22;5505;51.450;9.254;2023-02-01T14:33:47;4.60;99.90
10905;DHT22;5505;51.450;9.254;2023-02-01T14:36:44;4.60;99.90
10905;DHT22;5505;51.450;9.254;2023-02-01T14:39:39;4.60;99.90
10905;DHT22;5505;51.450;9.254;2023-02-01T14:42:38;4.70;99.90
10905;DHT22;5505;51.450;9.254;2023-02-01T14:45:48;4.80;99.90
10905;DHT22;5505;51.450;9.254;2023-02-01T14:48:45;4.90;99.90
10905;DHT22;5505;51.450;9.254;2023-02-01T14:51:33;4.90;99.90
10905;DHT22;5505;51.450;9.254;2023-02-01T14:54:24;5.00;99.90
10905;DHT22;5505;51.450;9.254;2023-02-01T14:57:15;6.10;99.90
10905;DHT22;5505;51.450;9.254;2023-02-01T15:00:17;5.10;99.90
10905;DHT22;5505;51.450;9.254;2023-02-01T15:03:22;5.10;99.90
10905;DHT22;5505;51.450;9.254;2023-02-01T15:06:29;5.10;99.90
10905;DHT22;5505;51.450;9.254;2023-02-01T15:09:18;5.20;99.90
10905;DHT22;5505;51.450;9.254;2023-02-01T15:12:17;5.20;99.90
10905;DHT22;5505;51.450;9.254;2023-02-01T15:15:11;5.20;99.90
10905;DHT22;5505;51.450;9.254;2023-02-01T15:17:59;5.20;99.90
10905;DHT22;5505;51.450;9.254;2023-02-01T15:20:56;5.20;99.90
10905;DHT22;5505;51.450;9.254;2023-02-01T15:23:44;5.90;99.90
10905;DHT22;5505;51.450;9.254;2023-02-01T15:26:33;5.30;99.90
10905;DHT22;5505;51.450;9.254;2023-02-01T15:29:22;5.30;99.90
10905;DHT22;5505;51.450;9.254;2023-02-01T15:32:28;5.50;99.90
10905;DHT22;5505;51.450;9.254;2023-02-01T15:35:41;5.40;99.90
10905;DHT22;5505;51.450;9.254;2023-02-01T15:38:33;5.40;99.90
10905;DHT22;5505;51.450;9.254;2023-02-01T15:41:28;5.50;99.90
10905;DHT22;5505;51.450;9.254;2023-02-01T15:44:20;5.40;99.90
10905;DHT22;5505;51.450;9.254;2023-02-01T15:47:14;5.50;99.90
10905;DHT22;5505;51.450;9.254;2023-02-01T15:50:02;5.50;99.90
10905;DHT22;5505;51.450;9.254;2023-02-01T15:52:51;5.40;99.90
10905;DHT22;5505;51.450;9.254;2023-02-01T15:55:39;5.40;99.90
10905;DHT22;5505;51.450;9.254;2023-02-01T15:58:28;5.30;99.90
10905;DHT22;5505;51.450;9.254;2023-02-01T16:01:17;6.40;99.90
10905;DHT22;5505;51.450;9.254;2023-02-01T16:04:14;5.30;99.90
10905;DHT22;5505;51.450;9.254;2023-02-01T16:07:03;5.20;99.90
10905;DHT22;5505;51.450;9.254;2023-02-01T16:09:53;5.20;99.90
10905;DHT22;5505;51.450;9.254;2023-02-01T16:12:46;5.40;99.90
10905;DHT22;5505;51.450;9.254;2023-02-01T16:15:34;5.30;99.90
10905;DHT22;5505;51.450;9.254;2023-02-01T16:18:21;5.40;99.90
10905;DHT22;5505;51.450;9.254;2023-02-01T16:21:08;3.00;99.90
10905;DHT22;5505;51.450;9.254;2023-02-01T16:23:55;5.40;99.90
10905;DHT22;5505;51.450;9.254;2023-02-01T16:26:42;5.50;99.90
10905;DHT22;5505;51.450;9.254;2023-02-01T16:29:28;5.50;99.90
10905;DHT22;5505;51.450;9.254;2023-02-01T16:32:19;5.50;99.90
10905;DHT22;5505;51.450;9.254;2023-02-01T16:35:22;5.50;99.90
10905;DHT22;5505;51.450;9.254;2023-02-01T16:38:12;5.50;99.90
10905;DHT22;5505;51.450;9.254;2023-02-01T16:40:59;5.50;99.90
10905;DHT22;5505;51.450;9.254;2023-02-01T16:43:51;5.50;99.90
10905;DHT22;5505;51.450;9.254;2023-02-01T16:46:40;5.50;99.90
10905;DHT22;5505;51.450;9.254;2023-02-01T16:49:29;5.50;99.90
10905;DHT22;5505;51.450;9.254;2023-02-01T16:52:18;6.00;99.90
10905;DHT22;5505;51.450;9.254;2023-02-01T16:55:09;5.40;99.90
10905;DHT22;5505;51.450;9.254;2023-02-01T16:57:58;5.40;99.90
10905;DHT22;5505;51.450;9.254;2023-02-01T17:00:45;5.40;99.90
10905;DHT22;5505;51.450;9.254;2023-02-01T17:03:32;5.40;99.90
10905;DHT22;5505;51.450;9.254;2023-02-01T17:06:22;6.90;99.90
10905;DHT22;5505;51.450;9.254;2023-02-01T17:09:10;5.40;99.90
10905;DHT22;5505;51.450;9.254;2023-02-01T17:11:57;5.20;99.90
10905;DHT22;5505;51.450;9.254;2023-02-01T17:14:43;5.10;99.90
10905;DHT22;5505;51.450;9.254;2023-02-01T17:17:34;4.80;99.90
10905;DHT22;5505;51.450;9.254;2023-02-01T17:20:23;4.10;99.90
10905;DHT22;5505;51.450;9.254;2023-02-01T17:23:12;3.70;99.90
10905;DHT22;5505;51.450;9.254;2023-02-01T17:25:59;3.40;99.90
10905;DHT22;5505;51.450;9.254;2023-02-01T17:28:47;3.40;99.90
10905;DHT22;5505;51.450;9.254;2023-02-01T17:31:37;3.40;99.90
10905;DHT22;5505;51.450;9.254;2023-02-01T17:34:25;3.40;99.90
10905;DHT22;5505;51.450;9.254;2023-02-01T17:37:26;3.40;99.90
10905;DHT22;5505;51.450;9.254;2023-02-01T17:40:15;3.50;99.90
10905;DHT22;5505;51.450;9.254;2023-02-01T17:43:02;3.40;99.90
10905;DHT22;5505;51.450;9.254;2023-02-01T17:45:51;3.30;99.90
10905;DHT22;5505;51.450;9.254;2023-02-01T17:48:38;3.10;99.90
10905;DHT22;5505;51.450;9.254;2023-02-01T17:51:26;3.00;99.90
10905;DHT22;5505;51.450;9.254;2023-02-01T17:54:14;4.10;99.90
10905;DHT22;5505;51.450;9.254;2023-02-01T17:57:09;3.00;99.90
10905;DHT22;5505;51.450;9.254;2023-02-01T17:59:56;3.00;99.90
10905;DHT22;5505;51.450;9.254;2023-02-01T18:02:43;3.00;99.90
10905;DHT22;5505;51.450;9.254;2023-02-01T18:05:37;3.00;99.90
10905;DHT22;5505;51.450;9.254;2023-02-01T18:08:26;3.00;99.90
10905;DHT22;5505;51.450;9.254;2023-02-01T18:11:15;3.20;99.90
10905;DHT22;5505;51.450;9.254;2023-02-01T18:14:03;3.30;99.90
10905;DHT22;5505;51.450;9.254;2023-02-01T18:16:50;3.50;99.90
10905;DHT22;5505;51.450;9.254;2023-02-01T18:19:40;3.70;99.90
10905;DHT22;5505;51.450;9.254;2023-02-01T18:22:27;3.80;99.90
10905;DHT22;5505;51.450;9.254;2023-02-01T18:25:21;3.90;99.90
10905;DHT22;5505;51.450;9.254;2023-02-01T18:28:08;3.90;99.90
10905;DHT22;5505;51.450;9.254;2023-02-01T18:30:57;3.80;99.90
10905;DHT22;5505;51.450;9.254;2023-02-01T18:33:44;3.80;99.90
10905;DHT22;5505;51.450;9.254;2023-02-01T18:36:31;3.70;99.90
10905;DHT22;5505;51.450;9.254;2023-02-01T18:39:18;3.60;99.90
10905;DHT22;5505;51.450;9.254;2023-02-01T18:42:04;3.50;99.90